Time;durP1;ratioP1;P1;durP2;ratioP2;P2;SDS_P1;SDS_P2;PMS_P1;PMS_P2;Temp;Humidity;BMP_temperature;BMP_pressure;BME280_temperature;BME280_humidity;BME280_pressure;Samples;Min_cycle;Max_cycle;Signal;HPM_P1;HPM_P2
2022/01/10 00:00:38;;;;;;;24.90;18.50;;;1.80;99.90;;;;;;5011655;28;20110;-75
2022/01/10 00:03:04;;;;;;;24.10;19.95;;;1.80;99.90;;;;;;5008270;28;20468;-74
2022/01/10 00:05:30;;;;;;;31.75;22.45;;;1.80;99.90;;;;;;5007625;28;20032;-75
2022/01/10 00:07:56;;;;;;;28.98;23.63;;;1.80;99.90;;;;;;5011718;28;20025;-75
2022/01/10 00:10:22;;;;;;;25.38;21.00;;;1.70;99.90;;;;;;5008768;28;20053;-75
2022/01/10 00:12:48;;;;;;;42.85;28.27;;;1.70;99.90;;;;;;5009718;28;20105;-75
2022/01/10 00:15:16;;;;;;;39.55;26.98;;;1.70;99.90;;;;;;5000119;28;20026;-75
2022/01/10 00:17:42;;;;;;;30.70;22.40;;;1.80;99.90;;;;;;5008224;28;20065;-75
2022/01/10 00:20:10;;;;;;;30.83;23.23;;;1.70;99.90;;;;;;5007949;28;20104;-75
2022/01/10 00:22:36;;;;;;;24.80;20.67;;;1.70;99.90;;;;;;5011332;28;20468;-75
2022/01/10 00:25:03;;;;;;;27.67;20.13;;;1.60;99.90;;;;;;5009099;28;20484;-76
2022/01/10 00:27:29;;;;;;;23.33;19.17;;;1.60;99.90;;;;;;5003123;28;20040;-74
2022/01/10 00:29:55;;;;;;;28.25;22.15;;;1.70;99.90;;;;;;5003609;28;20017;-75
2022/01/10 00:32:23;;;;;;;25.17;18.60;;;1.70;99.90;;;;;;5006097;28;20053;-75
2022/01/10 00:34:49;;;;;;;26.45;20.88;;;1.70;99.90;;;;;;5009227;28;20444;-76
2022/01/10 00:37:15;;;;;;;24.65;19.52;;;1.70;99.90;;;;;;5007892;28;20030;-74
2022/01/10 00:39:40;;;;;;;31.50;23.98;;;1.70;99.90;;;;;;5011515;28;20112;-74
2022/01/10 00:42:06;;;;;;;34.88;25.58;;;1.70;99.90;;;;;;5002237;28;20026;-74
2022/01/10 00:44:37;;;;;;;33.58;24.77;;;1.70;99.90;;;;;;5006413;28;20113;-74
2022/01/10 00:47:03;;;;;;;28.80;22.20;;;1.70;99.90;;;;;;4998252;28;20022;-74
2022/01/10 00:49:28;;;;;;;36.28;26.85;;;1.70;99.90;;;;;;5015146;28;20022;-74
2022/01/10 00:51:54;;;;;;;35.45;25.30;;;1.60;99.90;;;;;;5012267;28;20037;-74
2022/01/10 00:54:19;;;;;;;39.80;28.40;;;1.50;99.90;;;;;;5005431;28;20477;-74
2022/01/10 00:56:45;;;;;;;47.67;32.42;;;1.60;99.90;;;;;;5011378;28;20041;-74
2022/01/10 00:59:10;;;;;;;48.60;34.65;;;1.50;99.90;;;;;;5007050;28;20084;-74
2022/01/10 01:01:36;;;;;;;43.10;30.27;;;1.40;99.90;;;;;;5013581;28;20084;-74
2022/01/10 01:04:02;;;;;;;31.85;24.02;;;1.40;99.90;;;;;;5012963;28;20022;-74
2022/01/10 01:06:28;;;;;;;33.75;27.73;;;1.40;99.90;;;;;;5010630;28;20430;-74
2022/01/10 01:08:59;;;;;;;27.55;23.95;;;1.40;99.90;;;;;;5013601;28;20029;-74
2022/01/10 01:14:21;;;;;;;34.28;26.50;;;1.60;99.90;;;;;;5001394;28;20032;-73
2022/01/10 01:16:56;;;;;;;44.92;30.35;;;1.60;99.90;;;;;;5011603;28;20100;-74
2022/01/10 01:24:33;;;;;;;52.75;31.73;;;1.50;99.90;;;;;;5011233;28;20510;-73
2022/01/10 01:26:59;;;;;;;54.20;34.63;;;1.40;99.90;;;;;;5014003;28;20022;-73
2022/01/10 01:29:27;;;;;;;36.85;28.70;;;1.40;99.90;;;;;;5011324;28;20026;-73
2022/01/10 01:31:54;;;;;;;35.58;27.20;;;1.40;99.90;;;;;;5008446;28;20096;-73
2022/01/10 01:34:22;;;;;;;97.55;50.58;;;1.50;99.90;;;;;;5013168;28;20022;-74
2022/01/10 01:36:52;;;;;;;63.65;39.03;;;1.40;99.90;;;;;;5011015;28;20098;-75
2022/01/10 01:39:24;;;;;;;51.95;36.60;;;1.40;99.90;;;;;;5009157;28;20026;-75
2022/01/10 01:41:54;;;;;;;58.05;38.53;;;1.40;99.90;;;;;;5011899;28;20537;-75
2022/01/10 01:44:20;;;;;;;37.10;28.15;;;1.40;99.90;;;;;;5005455;28;20037;-75
2022/01/10 01:46:46;;;;;;;36.33;27.27;;;1.40;99.90;;;;;;5014105;28;20113;-75
2022/01/10 01:49:14;;;;;;;38.65;29.95;;;1.50;99.90;;;;;;5008982;28;20093;-75
2022/01/10 01:51:40;;;;;;;44.17;29.48;;;1.50;99.90;;;;;;5009204;28;20045;-75
2022/01/10 01:54:08;;;;;;;39.05;27.40;;;1.50;99.90;;;;;;5006616;28;20024;-75
2022/01/10 01:56:34;;;;;;;28.95;24.38;;;1.50;99.90;;;;;;5012377;28;20511;-75
2022/01/10 01:59:00;;;;;;;32.72;25.67;;;1.60;99.90;;;;;;5005599;28;20018;-75
2022/01/10 02:01:26;;;;;;;31.55;24.23;;;1.60;99.90;;;;;;5013689;28;20022;-75
2022/01/10 02:03:52;;;;;;;39.70;29.58;;;1.50;99.90;;;;;;5011605;28;20108;-76
2022/01/10 02:06:18;;;;;;;40.10;29.80;;;1.40;99.90;;;;;;5008468;28;20165;-75
2022/01/10 02:08:44;;;;;;;44.75;31.65;;;1.50;99.90;;;;;;5012421;28;20021;-73
2022/01/10 02:11:12;;;;;;;53.00;33.00;;;1.50;99.90;;;;;;5003366;28;20033;-74
2022/01/10 02:13:38;;;;;;;27.55;22.85;;;1.60;99.90;;;;;;5007069;28;20112;-72
2022/01/10 02:16:06;;;;;;;36.17;26.02;;;1.50;99.90;;;;;;5004578;28;20056;-73
2022/01/10 02:18:32;;;;;;;28.77;23.60;;;1.50;99.90;;;;;;5009154;28;20473;-73
2022/01/10 02:21:00;;;;;;;26.75;21.70;;;1.50;99.90;;;;;;5004808;28;20377;-73
2022/01/10 02:23:27;;;;;;;62.03;36.42;;;1.60;99.90;;;;;;5008595;28;20469;-74
2022/01/10 02:25:53;;;;;;;38.45;28.35;;;1.50;99.90;;;;;;5005051;28;20128;-73
2022/01/10 02:28:19;;;;;;;43.53;29.75;;;1.40;99.90;;;;;;5000088;28;20041;-73
2022/01/10 02:30:45;;;;;;;34.40;24.98;;;1.40;99.90;;;;;;5000218;28;20038;-73
2022/01/10 02:33:11;;;;;;;72.40;46.42;;;1.40;99.90;;;;;;5006925;28;20452;-75
2022/01/10 02:35:51;;;;;;;47.13;33.70;;;1.40;99.90;;;;;;5005179;28;20022;-75
2022/01/10 02:38:17;;;;;;;35.58;27.48;;;1.30;99.90;;;;;;4988526;28;20030;-75
2022/01/10 02:40:44;;;;;;;39.88;30.05;;;1.30;99.90;;;;;;5000299;28;20031;-75
2022/01/10 02:43:10;;;;;;;42.08;29.25;;;1.40;99.90;;;;;;5009272;28;20030;-75
2022/01/10 02:45:35;;;;;;;46.60;31.02;;;1.40;99.90;;;;;;5006995;28;20026;-75
2022/01/10 02:48:01;;;;;;;37.80;28.55;;;1.40;99.90;;;;;;4994479;28;20113;-76
2022/01/10 02:50:26;;;;;;;57.55;35.40;;;1.30;99.90;;;;;;5005244;28;20030;-75
2022/01/10 02:52:52;;;;;;;29.42;22.85;;;1.30;99.90;;;;;;4999874;28;20034;-76
2022/01/10 02:55:18;;;;;;;35.83;26.58;;;1.30;99.90;;;;;;5000378;28;20084;-76
2022/01/10 02:57:44;;;;;;;48.20;32.58;;;1.30;99.90;;;;;;5006464;28;20087;-76
2022/01/10 03:00:16;;;;;;;39.70;27.60;;;1.30;99.90;;;;;;5006420;28;20108;-74
2022/01/10 03:02:44;;;;;;;37.05;26.52;;;1.20;99.90;;;;;;4987676;28;20427;-75
2022/01/10 03:05:10;;;;;;;41.83;30.02;;;1.20;99.90;;;;;;4999204;28;20082;-75
2022/01/10 03:07:37;;;;;;;34.22;27.55;;;1.20;99.90;;;;;;5004133;28;20420;-75
2022/01/10 03:10:04;;;;;;;42.58;30.40;;;1.20;99.90;;;;;;5006461;28;20026;-75
2022/01/10 03:12:31;;;;;;;41.97;30.20;;;1.30;99.90;;;;;;4999175;28;20427;-75
2022/01/10 03:14:58;;;;;;;42.53;29.85;;;1.20;99.90;;;;;;4999369;28;20035;-75
2022/01/10 03:17:24;;;;;;;57.25;34.70;;;1.20;99.90;;;;;;5004836;28;20026;-75
2022/01/10 03:19:50;;;;;;;39.60;27.90;;;1.30;99.90;;;;;;4994248;28;20570;-75
2022/01/10 03:22:16;;;;;;;39.13;27.83;;;1.30;99.90;;;;;;5004412;28;20065;-75
2022/01/10 03:24:41;;;;;;;33.85;26.38;;;1.20;99.90;;;;;;5005848;28;20065;-75
2022/01/10 03:27:07;;;;;;;34.65;25.33;;;1.20;99.90;;;;;;4999219;28;20033;-72
2022/01/10 03:29:33;;;;;;;35.35;27.45;;;1.30;99.90;;;;;;5011217;28;20025;-73
2022/01/10 03:31:58;;;;;;;30.55;24.13;;;1.30;99.90;;;;;;5000044;28;20037;-72
2022/01/10 03:34:24;;;;;;;54.42;36.55;;;1.30;99.90;;;;;;4997697;28;20022;-73
2022/01/10 03:36:49;;;;;;;37.35;27.95;;;1.30;99.90;;;;;;5004650;28;20402;-72
2022/01/10 03:39:15;;;;;;;40.92;29.85;;;1.30;99.90;;;;;;5006055;28;20494;-73
2022/01/10 03:41:41;;;;;;;56.10;36.42;;;1.40;99.90;;;;;;4992555;28;20053;-73
2022/01/10 03:44:07;;;;;;;34.13;26.05;;;1.40;99.90;;;;;;4991030;28;20504;-73
2022/01/10 03:46:34;;;;;;;47.13;31.75;;;1.40;99.90;;;;;;5000193;28;20037;-73
2022/01/10 03:49:00;;;;;;;40.90;25.83;;;1.50;99.90;;;;;;4999044;28;20026;-73
2022/01/10 03:51:26;;;;;;;47.70;31.65;;;1.50;99.90;;;;;;5010245;28;20083;-72
2022/01/10 03:53:52;;;;;;;31.50;22.83;;;1.40;99.90;;;;;;5011911;28;20105;-73
2022/01/10 03:56:18;;;;;;;33.90;24.38;;;1.40;99.90;;;;;;5004087;28;20083;-73
2022/01/10 03:58:43;;;;;;;40.03;28.73;;;1.50;99.90;;;;;;5006919;28;20034;-73
2022/01/10 04:01:09;;;;;;;45.65;31.60;;;1.50;99.90;;;;;;5004396;28;20472;-74
2022/01/10 04:03:37;;;;;;;42.83;30.40;;;1.40;99.90;;;;;;5005407;28;20097;-74
2022/01/10 04:06:03;;;;;;;36.22;27.33;;;1.40;99.90;;;;;;4999744;28;20041;-74
2022/01/10 04:08:28;;;;;;;39.13;27.70;;;1.40;99.90;;;;;;5009430;28;20066;-74
2022/01/10 04:10:54;;;;;;;37.88;28.48;;;1.50;99.90;;;;;;4999642;28;20021;-74
2022/01/10 04:13:19;;;;;;;38.42;29.48;;;1.50;99.90;;;;;;5010995;28;20102;-73
2022/01/10 04:15:45;;;;;;;35.10;26.60;;;1.40;99.90;;;;;;4998365;28;20037;-76
2022/01/10 04:18:10;;;;;;;37.40;28.33;;;1.50;99.90;;;;;;5001307;28;20026;-75
2022/01/10 04:20:36;;;;;;;41.83;29.95;;;1.50;99.90;;;;;;5008215;28;20026;-75
2022/01/10 04:23:02;;;;;;;38.95;28.48;;;1.50;99.90;;;;;;5009232;28;20431;-75
2022/01/10 04:25:28;;;;;;;51.97;33.97;;;1.50;99.90;;;;;;5001826;28;20061;-76
2022/01/10 04:27:53;;;;;;;41.55;30.35;;;1.50;99.90;;;;;;5001302;28;20058;-75
2022/01/10 04:30:19;;;;;;;47.83;31.65;;;1.40;99.90;;;;;;5007599;28;20034;-76
2022/01/10 04:32:45;;;;;;;49.00;34.70;;;1.40;99.90;;;;;;5008923;28;20030;-75
2022/01/10 04:35:11;;;;;;;47.17;34.63;;;1.40;99.90;;;;;;5002468;28;20416;-75
2022/01/10 04:37:37;;;;;;;47.83;32.67;;;1.40;99.90;;;;;;5002401;28;20424;-73
2022/01/10 04:40:04;;;;;;;49.53;35.10;;;1.50;99.90;;;;;;5008614;28;20022;-74
2022/01/10 04:42:29;;;;;;;43.80;30.83;;;1.40;99.90;;;;;;5009248;28;20072;-74
2022/01/10 04:44:55;;;;;;;39.70;30.40;;;1.40;99.90;;;;;;5013928;28;20060;-73
2022/01/10 04:47:21;;;;;;;40.00;29.08;;;1.40;99.90;;;;;;5015158;28;20068;-73
2022/01/10 04:52:33;;;;;;;83.05;43.35;;;1.40;99.90;;;;;;4992414;28;20034;-74
2022/01/10 04:55:00;;;;;;;85.85;44.22;;;1.40;99.90;;;;;;5004616;28;20022;-73
2022/01/10 04:57:26;;;;;;;58.28;37.65;;;1.30;99.90;;;;;;5010933;28;20049;-73
2022/01/10 04:59:51;;;;;;;66.35;38.97;;;1.40;99.90;;;;;;5005150;28;20029;-73
2022/01/10 05:02:17;;;;;;;64.68;37.75;;;1.40;99.90;;;;;;5001700;28;20041;-73
2022/01/10 05:04:43;;;;;;;45.85;30.45;;;1.40;99.90;;;;;;5004058;28;20476;-72
2022/01/10 05:07:09;;;;;;;46.47;30.88;;;1.40;99.90;;;;;;5008376;28;20092;-73
2022/01/10 05:09:35;;;;;;;59.88;35.55;;;1.40;99.90;;;;;;5005918;28;20030;-74
2022/01/10 05:12:00;;;;;;;58.17;35.63;;;1.30;99.90;;;;;;5000451;28;20022;-74
2022/01/10 05:14:26;;;;;;;68.40;40.38;;;1.10;99.90;;;;;;5002385;28;20085;-75
2022/01/10 05:16:52;;;;;;;50.85;35.03;;;1.20;99.90;;;;;;5008477;28;20476;-74
2022/01/10 05:19:18;;;;;;;61.10;40.22;;;1.30;99.90;;;;;;5004329;28;20033;-74
2022/01/10 05:21:43;;;;;;;65.10;41.97;;;1.40;99.90;;;;;;5013297;28;20369;-74
2022/01/10 05:24:09;;;;;;;68.53;41.53;;;1.30;99.90;;;;;;5002591;28;20084;-75
2022/01/10 05:26:35;;;;;;;69.43;41.72;;;1.30;99.90;;;;;;5008116;28;20106;-77
2022/01/10 05:29:02;;;;;;;45.90;34.67;;;1.40;99.90;;;;;;5004938;28;20030;-77
2022/01/10 05:31:29;;;;;;;51.67;37.15;;;1.30;99.90;;;;;;4999867;28;20034;-76
2022/01/10 05:33:55;;;;;;;65.28;41.63;;;1.30;99.90;;;;;;5001718;28;20050;-78
2022/01/10 05:36:21;;;;;;;70.57;44.88;;;1.30;99.90;;;;;;5013143;28;20099;-75
2022/01/10 05:38:46;;;;;;;81.65;45.85;;;1.30;99.90;;;;;;5001808;28;20092;-75
2022/01/10 05:41:12;;;;;;;57.78;41.22;;;1.30;99.90;;;;;;5006476;28;20026;-75
2022/01/10 05:43:38;;;;;;;44.70;35.08;;;1.30;99.90;;;;;;4996668;28;20022;-74
2022/01/10 05:46:07;;;;;;;171.27;71.63;;;1.30;99.90;;;;;;4998884;28;20384;-74
2022/01/10 05:48:34;;;;;;;86.10;50.33;;;1.10;99.90;;;;;;5014207;28;20476;-76
2022/01/10 05:51:00;;;;;;;85.32;48.40;;;1.00;99.90;;;;;;5001062;28;20033;-75
2022/01/10 05:53:25;;;;;;;66.78;44.60;;;1.00;99.90;;;;;;5014136;28;20026;-75
2022/01/10 05:55:51;;;;;;;80.07;48.25;;;1.00;99.90;;;;;;5013956;28;20101;-76
2022/01/10 05:58:17;;;;;;;88.38;51.85;;;1.00;99.90;;;;;;5003346;28;20053;-75
2022/01/10 06:00:43;;;;;;;88.88;53.20;;;1.00;99.90;;;;;;4997509;28;20030;-76
2022/01/10 06:03:08;;;;;;;86.18;51.45;;;1.30;99.90;;;;;;5001919;28;20113;-76
2022/01/10 06:05:34;;;;;;;70.03;46.60;;;0.90;99.90;;;;;;5009996;28;20484;-75
2022/01/10 06:08:02;;;;;;;106.32;57.67;;;0.90;99.90;;;;;;5001939;28;20496;-76
2022/01/10 06:10:29;;;;;;;60.47;41.72;;;0.80;99.90;;;;;;5007194;28;20026;-76
2022/01/10 06:12:55;;;;;;;82.60;51.95;;;0.80;99.90;;;;;;5005383;28;20029;-75
2022/01/10 06:15:22;;;;;;;67.88;45.80;;;0.70;99.90;;;;;;5013377;28;20037;-74
2022/01/10 06:17:48;;;;;;;68.80;41.92;;;0.80;99.90;;;;;;5001052;28;20055;-74
2022/01/10 06:20:14;;;;;;;99.10;49.17;;;0.70;99.90;;;;;;5005770;28;20484;-73
2022/01/10 06:22:39;;;;;;;200.63;75.15;;;0.80;99.90;;;;;;5005175;28;20535;-74
2022/01/10 06:25:09;;;;;;;124.72;60.00;;;0.80;99.90;;;;;;5013331;28;20026;-75
2022/01/10 06:27:34;;;;;;;85.03;46.30;;;0.80;99.90;;;;;;5002273;28;20073;-75
2022/01/10 06:30:00;;;;;;;96.05;51.95;;;0.80;99.90;;;;;;5010756;28;20423;-75
2022/01/10 06:32:25;;;;;;;79.40;46.78;;;0.80;99.90;;;;;;5000217;28;20038;-74
2022/01/10 06:34:52;;;;;;;69.38;43.00;;;0.70;99.90;;;;;;4993607;28;20030;-74
2022/01/10 06:37:18;;;;;;;52.13;36.90;;;0.70;99.90;;;;;;5004697;28;20033;-75
2022/01/10 06:39:44;;;;;;;54.85;38.80;;;0.80;99.90;;;;;;4993953;28;20451;-75
2022/01/10 06:42:10;;;;;;;67.13;42.80;;;0.80;99.90;;;;;;4993410;28;20141;-74
2022/01/10 06:44:36;;;;;;;56.45;37.85;;;0.90;99.90;;;;;;4993453;28;20030;-75
2022/01/10 06:47:02;;;;;;;81.75;48.03;;;0.90;99.90;;;;;;5004941;28;20094;-74
2022/01/10 06:49:27;;;;;;;63.60;41.50;;;0.90;99.90;;;;;;5006866;28;20026;-74
2022/01/10 06:51:53;;;;;;;62.58;42.53;;;0.90;99.90;;;;;;4993433;28;20026;-75
2022/01/10 06:54:18;;;;;;;59.35;41.38;;;0.90;99.90;;;;;;5006541;28;20033;-77
2022/01/10 06:56:44;;;;;;;54.78;38.50;;;0.90;99.90;;;;;;5004979;28;20033;-75
2022/01/10 06:59:09;;;;;;;56.97;38.97;;;1.00;99.90;;;;;;4999759;28;20058;-73
2022/01/10 07:01:35;;;;;;;54.05;37.47;;;1.00;99.90;;;;;;5011382;28;20056;-73
2022/01/10 07:04:01;;;;;;;72.13;44.80;;;1.00;99.90;;;;;;5008004;28;20030;-73
2022/01/10 07:06:26;;;;;;;64.57;42.28;;;1.10;99.90;;;;;;5003987;28;20092;-74
2022/01/10 07:08:52;;;;;;;62.15;39.47;;;1.00;99.90;;;;;;4999326;28;20018;-75
2022/01/10 07:11:17;;;;;;;64.55;40.85;;;1.00;99.90;;;;;;5007513;28;20030;-74
2022/01/10 07:13:43;;;;;;;81.93;49.70;;;1.00;99.90;;;;;;4997022;28;20028;-76
2022/01/10 07:16:09;;;;;;;77.18;45.13;;;1.00;99.90;;;;;;5001943;28;20021;-75
2022/01/10 07:18:34;;;;;;;70.35;43.42;;;1.00;99.90;;;;;;5004847;28;20026;-74
2022/01/10 07:21:00;;;;;;;65.05;42.40;;;1.00;99.90;;;;;;4998109;28;20025;-75
2022/01/10 07:23:26;;;;;;;99.28;56.28;;;1.10;99.90;;;;;;5004732;28;20036;-76
2022/01/10 07:25:51;;;;;;;71.70;47.60;;;1.10;99.90;;;;;;5011598;28;20034;-76
2022/01/10 07:28:17;;;;;;;93.32;52.58;;;1.30;99.90;;;;;;5004253;28;20033;-76
2022/01/10 07:30:43;;;;;;;111.70;57.47;;;1.20;99.90;;;;;;5009501;28;20616;-77
2022/01/10 07:33:09;;;;;;;171.02;71.00;;;1.10;99.90;;;;;;5007223;28;20453;-77
2022/01/10 07:35:34;;;;;;;82.20;46.42;;;1.00;99.90;;;;;;5008320;28;20108;-76
2022/01/10 07:38:00;;;;;;;113.78;52.20;;;0.90;99.90;;;;;;5001393;28;20037;-77
2022/01/10 07:40:26;;;;;;;188.60;68.25;;;0.70;99.90;;;;;;5003035;28;20030;-77
2022/01/10 07:42:52;;;;;;;265.50;75.93;;;0.60;99.90;;;;;;5007390;28;20487;-77
2022/01/10 07:45:18;;;;;;;215.65;67.80;;;0.60;99.90;;;;;;5000473;28;20125;-76
2022/01/10 07:47:44;;;;;;;124.05;50.42;;;0.50;99.90;;;;;;5003521;28;20032;-77
2022/01/10 07:50:10;;;;;;;187.07;64.07;;;0.60;99.90;;;;;;5002690;28;20032;-76
2022/01/10 07:52:36;;;;;;;102.88;48.42;;;0.70;99.90;;;;;;5006042;28;20518;-77
2022/01/10 07:55:02;;;;;;;199.38;71.80;;;0.80;99.90;;;;;;5011134;28;20022;-76
2022/01/10 07:57:28;;;;;;;171.30;70.53;;;0.90;99.90;;;;;;5006529;28;20061;-77
2022/01/10 07:59:54;;;;;;;233.65;103.22;;;0.90;99.90;;;;;;5011921;28;20049;-76
2022/01/10 08:02:21;;;;;;;121.57;69.10;;;1.00;99.90;;;;;;4996922;28;20027;-76
2022/01/10 08:04:47;;;;;;;162.23;77.60;;;1.10;99.90;;;;;;4993084;28;20027;-77
2022/01/10 08:07:13;;;;;;;181.80;91.85;;;1.10;99.90;;;;;;5007385;28;20062;-76
2022/01/10 08:09:38;;;;;;;254.88;103.68;;;1.20;99.90;;;;;;4999178;28;20054;-76
2022/01/10 08:12:04;;;;;;;237.68;101.93;;;1.20;99.90;;;;;;5003706;28;20022;-76
2022/01/10 08:14:31;;;;;;;911.92;204.25;;;1.30;99.90;;;;;;5003587;28;20027;-76
2022/01/10 08:16:57;;;;;;;304.20;96.72;;;1.10;99.90;;;;;;5007202;28;20025;-76
2022/01/10 08:19:22;;;;;;;273.67;102.57;;;1.20;99.90;;;;;;5009802;28;20176;-76
2022/01/10 08:21:48;;;;;;;178.60;83.82;;;1.10;99.90;;;;;;5003744;28;20702;-76
2022/01/10 08:24:14;;;;;;;624.10;140.38;;;1.20;99.90;;;;;;5002880;28;20113;-77
2022/01/10 08:26:40;;;;;;;522.50;128.30;;;1.20;99.90;;;;;;5011550;28;20097;-76
2022/01/10 08:29:06;;;;;;;528.45;130.50;;;1.10;99.90;;;;;;4999848;28;20022;-76
2022/01/10 08:31:33;;;;;;;484.55;134.70;;;1.00;99.90;;;;;;4996139;28;20038;-76
2022/01/10 08:34:00;;;;;;;311.80;94.85;;;1.00;99.90;;;;;;4999377;28;20014;-76
2022/01/10 08:36:28;;;;;;;330.17;88.68;;;1.10;99.90;;;;;;5008929;28;20029;-76
2022/01/10 08:38:56;;;;;;;430.05;127.47;;;1.10;99.90;;;;;;5010119;28;20104;-76
2022/01/10 08:41:22;;;;;;;230.25;87.70;;;1.10;99.90;;;;;;5006126;28;20034;-75
2022/01/10 08:43:48;;;;;;;252.27;99.47;;;1.20;99.90;;;;;;4999021;28;20416;-75
2022/01/10 08:46:13;;;;;;;259.02;92.53;;;1.30;99.90;;;;;;5000723;28;20062;-75
2022/01/10 08:48:40;;;;;;;387.80;132.63;;;1.30;99.90;;;;;;4998381;28;20034;-74
2022/01/10 08:51:06;;;;;;;281.38;98.25;;;1.20;99.90;;;;;;5002383;28;20022;-76
2022/01/10 08:53:31;;;;;;;264.80;103.38;;;1.20;99.90;;;;;;5003388;28;20396;-75
2022/01/10 08:55:57;;;;;;;278.80;102.97;;;1.20;99.90;;;;;;4998187;28;20022;-75
2022/01/10 08:58:24;;;;;;;228.95;96.03;;;1.20;99.90;;;;;;4998416;28;20033;-75
2022/01/10 09:00:50;;;;;;;139.73;74.40;;;1.30;99.90;;;;;;5005021;28;20034;-74
2022/01/10 09:03:16;;;;;;;98.68;62.45;;;1.30;99.90;;;;;;5004270;28;20080;-75
2022/01/10 09:05:41;;;;;;;141.77;76.68;;;1.50;99.90;;;;;;5000381;28;20064;-76
2022/01/10 09:08:07;;;;;;;103.93;62.08;;;1.30;99.90;;;;;;5001780;28;20695;-76
2022/01/10 09:10:33;;;;;;;116.18;67.93;;;1.30;99.90;;;;;;5013386;28;20083;-76
2022/01/10 09:12:58;;;;;;;144.07;80.13;;;1.30;99.90;;;;;;5003365;28;20026;-75
2022/01/10 09:15:24;;;;;;;146.32;79.50;;;1.30;99.90;;;;;;5008495;28;20469;-76
2022/01/10 09:17:50;;;;;;;117.55;75.85;;;1.20;99.90;;;;;;5012425;28;20049;-76
2022/01/10 09:20:16;;;;;;;87.85;60.92;;;1.30;99.90;;;;;;5010683;28;20412;-76
2022/01/10 09:22:41;;;;;;;79.75;55.58;;;1.30;99.90;;;;;;5009737;28;20161;-76
2022/01/10 09:25:07;;;;;;;75.45;55.53;;;1.40;99.90;;;;;;5004098;28;20160;-75
2022/01/10 09:27:33;;;;;;;86.07;58.42;;;1.60;99.90;;;;;;4998206;28;20031;-76
2022/01/10 09:29:59;;;;;;;97.07;61.83;;;1.60;99.90;;;;;;5009035;28;20532;-76
2022/01/10 09:32:24;;;;;;;89.25;56.00;;;1.80;99.90;;;;;;5007094;28;20053;-76
2022/01/10 09:34:50;;;;;;;77.30;53.20;;;1.90;99.90;;;;;;5006581;28;20511;-76
2022/01/10 09:37:16;;;;;;;89.57;56.25;;;1.90;99.90;;;;;;5007162;28;20080;-76
2022/01/10 09:39:41;;;;;;;70.93;46.03;;;2.00;99.90;;;;;;5012818;28;20121;-75
2022/01/10 09:42:07;;;;;;;80.78;49.17;;;2.00;99.90;;;;;;5010009;28;20072;-75
2022/01/10 09:44:34;;;;;;;70.93;47.78;;;2.00;99.90;;;;;;5003293;28;20036;-75
2022/01/10 09:47:00;;;;;;;84.63;52.72;;;2.10;99.90;;;;;;5000268;28;20029;-75
2022/01/10 09:49:26;;;;;;;79.97;50.95;;;2.10;99.90;;;;;;5012771;28;20026;-75
2022/01/10 09:51:51;;;;;;;59.42;40.95;;;2.20;99.90;;;;;;5009453;28;20117;-75
2022/01/10 09:54:17;;;;;;;70.72;43.50;;;2.20;99.90;;;;;;5007281;28;20484;-74
2022/01/10 09:56:47;;;;;;;70.03;41.75;;;2.20;99.90;;;;;;5007339;28;20054;-75
2022/01/10 09:59:13;;;;;;;64.75;39.70;;;2.30;99.90;;;;;;5001035;28;20026;-75
2022/01/10 10:01:39;;;;;;;52.97;33.80;;;2.40;99.90;;;;;;5002752;28;20603;-76
2022/01/10 10:04:04;;;;;;;50.53;34.50;;;2.30;99.90;;;;;;5007734;28;20164;-75
2022/01/10 10:06:32;;;;;;;44.15;32.47;;;2.40;99.90;;;;;;5011560;28;20034;-75
2022/01/10 10:09:03;;;;;;;43.70;31.00;;;2.30;99.90;;;;;;5006838;28;20108;-74
2022/01/10 10:11:56;;;;;;;44.80;32.60;;;2.50;99.90;;;;;;5005613;28;20052;-75
2022/01/10 10:14:22;;;;;;;39.00;28.40;;;2.50;99.90;;;;;;5002907;28;20038;-75
2022/01/10 10:16:53;;;;;;;46.83;29.83;;;2.60;99.90;;;;;;5005041;28;20046;-75
2022/01/10 10:19:21;;;;;;;38.17;27.23;;;2.60;99.90;;;;;;5007841;28;20053;-75
2022/01/10 10:21:48;;;;;;;36.13;27.83;;;2.60;99.90;;;;;;5008923;28;20069;-75
2022/01/10 10:24:14;;;;;;;43.53;25.65;;;2.50;99.90;;;;;;5007261;28;20049;-76
2022/01/10 10:26:40;;;;;;;32.42;24.98;;;2.50;99.90;;;;;;5010352;28;20064;-76
2022/01/10 10:29:06;;;;;;;34.70;24.75;;;2.50;99.90;;;;;;5003265;28;20022;-76
2022/01/10 10:31:44;;;;;;;33.00;24.90;;;2.60;99.90;;;;;;5006340;28;20041;-75
2022/01/10 10:34:10;;;;;;;30.95;24.10;;;2.60;99.90;;;;;;5007249;28;20022;-75
2022/01/10 10:36:37;;;;;;;32.47;24.85;;;2.60;99.90;;;;;;5001361;28;20065;-75
2022/01/10 10:39:07;;;;;;;34.28;27.10;;;2.70;99.90;;;;;;5010670;28;20353;-75
2022/01/10 10:41:34;;;;;;;31.40;24.00;;;2.90;99.90;;;;;;5008022;28;20045;-75
2022/01/10 10:44:00;;;;;;;31.13;23.73;;;3.30;99.90;;;;;;4991106;28;20384;-75
2022/01/10 10:46:28;;;;;;;29.73;23.65;;;3.30;99.90;;;;;;5002757;28;20026;-74
2022/01/10 10:49:03;;;;;;;34.40;23.55;;;3.10;99.90;;;;;;5006777;28;20068;-74
2022/01/10 10:51:34;;;;;;;31.60;22.77;;;2.90;99.90;;;;;;5005097;28;20038;-74
2022/01/10 10:54:09;;;;;;;32.65;23.63;;;3.00;99.90;;;;;;5001424;28;20029;-75
2022/01/10 10:56:37;;;;;;;30.23;23.42;;;3.00;99.90;;;;;;5006638;28;20097;-74
2022/01/10 10:59:05;;;;;;;28.80;22.58;;;3.10;99.90;;;;;;5007979;28;20535;-75
2022/01/10 11:01:30;;;;;;;31.42;21.05;;;3.20;99.90;;;;;;5003047;28;20026;-75
2022/01/10 11:03:56;;;;;;;31.23;21.65;;;3.20;99.90;;;;;;5006876;28;20027;-75
2022/01/10 11:06:22;;;;;;;28.25;21.70;;;3.20;99.90;;;;;;5006185;28;20032;-75
2022/01/10 11:08:48;;;;;;;29.83;22.77;;;3.30;99.90;;;;;;5004691;28;20029;-75
2022/01/10 11:11:20;;;;;;;28.90;22.00;;;3.30;99.90;;;;;;5003401;28;20088;-76
2022/01/10 11:13:46;;;;;;;28.27;20.95;;;3.40;99.90;;;;;;5005421;28;20046;-75
2022/01/10 11:16:12;;;;;;;29.45;21.58;;;3.70;99.90;;;;;;5002984;28;20087;-75
2022/01/10 11:18:39;;;;;;;28.63;20.77;;;3.40;99.90;;;;;;5007380;28;20426;-75
2022/01/10 11:21:05;;;;;;;29.45;21.45;;;3.50;99.90;;;;;;5011065;28;20018;-75
2022/01/10 11:23:30;;;;;;;29.60;22.65;;;3.50;99.90;;;;;;5009440;28;20036;-76
2022/01/10 11:25:59;;;;;;;26.42;20.27;;;3.70;99.90;;;;;;5008836;28;20117;-76
2022/01/10 11:28:26;;;;;;;31.92;20.92;;;3.70;99.90;;;;;;5008381;28;20037;-76
2022/01/10 11:31:00;;;;;;;28.60;19.98;;;3.80;99.90;;;;;;5009892;28;20444;-76
2022/01/10 11:33:27;;;;;;;29.90;19.60;;;3.80;99.90;;;;;;5010851;28;20045;-75
2022/01/10 11:35:56;;;;;;;25.40;19.35;;;3.70;99.90;;;;;;5009448;28;20021;-76
2022/01/10 11:38:22;;;;;;;25.92;18.90;;;3.70;99.90;;;;;;5002202;28;20554;-75
2022/01/10 11:40:50;;;;;;;24.30;19.40;;;3.70;99.90;;;;;;5002879;28;20038;-75
2022/01/10 11:43:43;;;;;;;25.35;19.27;;;3.60;99.90;;;;;;5010750;28;20030;-75
2022/01/10 11:46:11;;;;;;;28.48;17.83;;;3.70;99.90;;;;;;5002028;28;20041;-76
2022/01/10 11:48:45;;;;;;;27.80;19.48;;;3.70;99.90;;;;;;5011892;28;20368;-75
2022/01/10 11:51:23;;;;;;;26.38;20.42;;;3.70;99.90;;;;;;5009164;28;20084;-76
2022/01/10 11:54:00;;;;;;;29.55;20.17;;;3.70;99.90;;;;;;5008075;28;20058;-75
2022/01/10 11:56:29;;;;;;;30.63;20.85;;;3.60;99.90;;;;;;5007034;28;20467;-75
2022/01/10 11:59:15;;;;;;;28.48;18.70;;;3.70;99.90;;;;;;5007180;28;20026;-75
2022/01/10 12:01:58;;;;;;;26.85;19.17;;;3.50;99.90;;;;;;5007301;28;20032;-75
2022/01/10 12:04:28;;;;;;;26.77;20.13;;;3.60;99.90;;;;;;5006220;28;20021;-75
2022/01/10 12:06:54;;;;;;;24.98;18.23;;;3.60;99.90;;;;;;4996236;28;20030;-75
2022/01/10 12:09:21;;;;;;;25.02;18.77;;;3.70;99.90;;;;;;4996693;28;20022;-75
2022/01/10 12:11:50;;;;;;;23.70;19.48;;;3.80;99.90;;;;;;4997733;28;20029;-75
2022/01/10 12:14:15;;;;;;;24.77;17.42;;;3.90;99.90;;;;;;5003567;28;20029;-75
2022/01/10 12:16:41;;;;;;;24.55;18.73;;;3.90;99.90;;;;;;5007440;28;20026;-75
2022/01/10 12:19:08;;;;;;;27.45;18.48;;;3.90;99.90;;;;;;5006033;28;20064;-75
2022/01/10 12:21:34;;;;;;;25.30;16.95;;;3.90;99.90;;;;;;5002729;28;20055;-75
2022/01/10 12:24:00;;;;;;;26.88;17.77;;;3.80;99.90;;;;;;5001510;28;20020;-75
2022/01/10 12:26:27;;;;;;;24.00;16.27;;;3.80;99.90;;;;;;5001949;28;20109;-74
2022/01/10 12:28:57;;;;;;;23.10;15.20;;;3.70;99.90;;;;;;4998462;28;20029;-71
2022/01/10 12:31:25;;;;;;;23.88;16.05;;;3.60;99.90;;;;;;4986827;28;20089;-70
2022/01/10 12:33:52;;;;;;;23.17;15.48;;;3.70;99.90;;;;;;4998628;28;20025;-70
2022/01/10 12:36:19;;;;;;;25.35;17.77;;;3.70;99.90;;;;;;4997200;28;20511;-70
2022/01/10 12:38:52;;;;;;;22.80;17.67;;;3.60;99.90;;;;;;5003426;28;20033;-70
2022/01/10 12:41:19;;;;;;;25.40;17.38;;;3.70;99.90;;;;;;5013092;28;20037;-71
2022/01/10 12:43:47;;;;;;;25.52;19.17;;;3.70;99.90;;;;;;5006096;28;20461;-69